createdAt,value
2022-08-14T00:00:08.774Z,100601.53
2022-08-14T00:00:33.129Z,100596.94
2022-08-14T00:00:58.209Z,100605.09
2022-08-14T00:01:24.161Z,100604.97
2022-08-14T00:01:54.478Z,100600.84
2022-08-14T00:02:17.499Z,100599.84
2022-08-14T00:02:40.219Z,100599.66
2022-08-14T00:03:01.906Z,100597.94
2022-08-14T00:03:29.259Z,100592.47
2022-08-14T00:03:53.409Z,100593.72
2022-08-14T00:04:34.208Z,100599.13
2022-08-14T00:04:57.892Z,100597.28
2022-08-14T00:05:23.442Z,100596.63
2022-08-14T00:05:45.162Z,100599.00
2022-08-14T00:06:25.724Z,100585.38
2022-08-14T00:06:50.467Z,100591.84
2022-08-14T00:07:13.803Z,100588.25
2022-08-14T00:07:41.992Z,100589.09
2022-08-14T00:08:04.410Z,100598.00
2022-08-14T00:08:45.052Z,100592.69
2022-08-14T00:09:08.098Z,100587.38
2022-08-14T00:09:33.129Z,100589.28
2022-08-14T00:10:01.674Z,100601.03
2022-08-14T00:10:52.945Z,100587.72
2022-08-14T00:11:15.036Z,100585.84
2022-08-14T00:11:38.732Z,100586.00
2022-08-14T00:12:23.854Z,100593.19
2022-08-14T00:12:56.225Z,100579.16
2022-08-14T00:13:21.014Z,100577.28
2022-08-14T00:13:52.619Z,100581.19
2022-08-14T00:14:17.210Z,100586.34
2022-08-14T00:14:39.186Z,100587.34
2022-08-14T00:15:03.139Z,100582.25
2022-08-14T00:15:29.922Z,100582.91
2022-08-14T00:16:00.328Z,100583.91
2022-08-14T00:16:41.591Z,100578.47
2022-08-14T00:17:05.597Z,100581.38
2022-08-14T00:17:27.323Z,100586.97
2022-08-14T00:17:53.636Z,100589.72
2022-08-14T00:18:30.756Z,100580.31
2022-08-14T00:19:18.630Z,100584.59
2022-08-14T00:19:43.149Z,100577.94
2022-08-14T00:20:10.295Z,100583.59
2022-08-14T00:20:35.958Z,100585.25
2022-08-14T00:21:03.477Z,100580.00
2022-08-14T00:21:30.942Z,100577.09
2022-08-14T00:21:52.934Z,100581.69
2022-08-14T00:22:22.083Z,100577.09
2022-08-14T00:23:11.835Z,100583.59
2022-08-14T00:23:34.449Z,100580.84
2022-08-14T00:23:56.882Z,100579.13
2022-08-14T00:24:29.007Z,100581.31
2022-08-14T00:24:52.733Z,100569.56
2022-08-14T00:25:14.471Z,100574.16
2022-08-14T00:25:42.074Z,100579.63
2022-08-14T00:26:06.064Z,100574.84
2022-08-14T00:26:28.594Z,100578.44
2022-08-14T00:26:52.643Z,100570.41
2022-08-14T00:27:16.619Z,100576.72
2022-08-14T00:27:39.610Z,100572.97
2022-08-14T00:28:02.813Z,100573.97
2022-08-14T00:28:54.079Z,100567.53
2022-08-14T00:29:18.548Z,100573.31
2022-08-14T00:29:42.991Z,100575.03
2022-08-14T00:30:07.439Z,100567.66
2022-08-14T00:30:29.414Z,100569.00
2022-08-14T00:30:52.053Z,100570.72
2022-08-14T00:31:14.846Z,100569.00
2022-08-14T00:31:44.277Z,100573.78
2022-08-14T00:32:52.057Z,100577.19
2022-08-14T00:33:01.882Z,100575.66
2022-08-14T00:33:52.560Z,100565.22
2022-08-14T00:34:36.990Z,100559.91
2022-08-14T00:35:01.137Z,100573.06
2022-08-14T00:35:22.822Z,100583.09
2022-08-14T00:36:36.197Z,100578.84
2022-08-14T00:36:49.512Z,100570.81
2022-08-14T00:37:11.593Z,100574.41
2022-08-14T00:37:35.793Z,100568.09
2022-08-14T00:37:58.393Z,100575.41
2022-08-14T00:38:21.792Z,100570.66
2022-08-14T00:38:45.890Z,100574.53
2022-08-14T00:39:09.852Z,100575.56
2022-08-14T00:39:31.668Z,100573.69
2022-08-14T00:39:53.494Z,100579.00
2022-08-14T00:40:27.540Z,100571.81
2022-08-14T00:40:55.440Z,100568.41
2022-08-14T00:41:20.076Z,100567.72
2022-08-14T00:41:42.512Z,100571.44
2022-08-14T00:42:06.367Z,100575.03
2022-08-14T00:43:11.724Z,100566.00
2022-08-14T00:43:11.956Z,100569.72
2022-08-14T00:43:34.380Z,100566.31
2022-08-14T00:43:58.429Z,100560.88
2022-08-14T00:44:32.268Z,100561.72
2022-08-14T00:44:56.074Z,100558.81
2022-08-14T00:45:18.606Z,100557.28
2022-08-14T00:45:43.175Z,100556.75
2022-08-14T00:46:32.622Z,100570.78
2022-08-14T00:46:58.821Z,100553.00
2022-08-14T00:47:24.622Z,100553.53
2022-08-14T00:47:49.098Z,100559.00
2022-08-14T00:48:12.064Z,100547.53
2022-08-14T00:48:36.744Z,100557.81
2022-08-14T00:49:00.781Z,100555.25
2022-08-14T00:49:24.178Z,100548.78
2022-08-14T00:49:47.043Z,100553.22
2022-08-14T00:50:17.933Z,100554.06
2022-08-14T00:50:39.810Z,100556.81
2022-08-14T00:51:03.407Z,100552.53
2022-08-14T00:51:25.672Z,100553.38
2022-08-14T00:52:00.898Z,100554.41
2022-08-14T00:52:23.389Z,100540.69
2022-08-14T00:52:46.407Z,100560.34
2022-08-14T00:53:13.132Z,100559.31
2022-08-14T00:53:37.091Z,100553.00
2022-08-14T00:54:00.669Z,100558.44
2022-08-14T00:54:22.397Z,100551.44
2022-08-14T00:54:45.632Z,100554.88
2022-08-14T00:55:10.000Z,100558.44
2022-08-14T00:55:36.824Z,100547.00
2022-08-14T00:56:00.722Z,100559.47
2022-08-14T00:56:31.390Z,100557.44
2022-08-14T00:56:56.039Z,100550.97
2022-08-14T00:57:18.761Z,100551.69
2022-08-14T00:57:41.320Z,100541.06
2022-08-14T00:58:27.827Z,100550.81
2022-08-14T00:58:56.861Z,100548.09
2022-08-14T00:59:23.215Z,100540.22
2022-08-14T00:59:46.372Z,100545.66
2022-08-14T01:00:34.233Z,100545.00
2022-08-14T01:00:57.904Z,100541.25
2022-08-14T01:01:19.787Z,100537.66
2022-08-14T01:01:41.809Z,100539.69
2022-08-14T01:02:05.767Z,100536.44
2022-08-14T01:02:32.381Z,100549.88
2022-08-14T01:02:54.161Z,100541.41
2022-08-14T01:03:18.066Z,100527.06
2022-08-14T01:03:42.401Z,100534.25
2022-08-14T01:04:06.091Z,100536.97
2022-08-14T01:04:37.780Z,100536.97
2022-08-14T01:05:23.469Z,100537.66
2022-08-14T01:05:51.783Z,100537.97
2022-08-14T01:06:16.858Z,100530.28
2022-08-14T01:06:40.953Z,100537.13
2022-08-14T01:07:07.418Z,100536.25
2022-08-14T01:07:29.834Z,100534.38
2022-08-14T01:08:50.625Z,100534.72
2022-08-14T01:08:59.196Z,100532.16
2022-08-14T01:09:22.781Z,100531.28
2022-08-14T01:09:45.511Z,100535.19
2022-08-14T01:10:07.846Z,100537.22
2022-08-14T01:10:45.664Z,100531.25
2022-08-14T01:11:08.318Z,100532.81
2022-08-14T01:11:36.260Z,100534.69
2022-08-14T01:12:02.634Z,100532.09
2022-08-14T01:12:30.037Z,100531.38
2022-08-14T01:12:52.087Z,100529.22
2022-08-14T01:13:21.143Z,100535.84
2022-08-14T01:13:44.555Z,100528.84
2022-08-14T01:14:25.922Z,100529.53
2022-08-14T01:14:52.977Z,100531.25
2022-08-14T01:15:16.728Z,100539.56
2022-08-14T01:15:57.770Z,100529.00
2022-08-14T01:16:25.494Z,100534.97
2022-08-14T01:16:53.008Z,100522.84
2022-08-14T01:17:17.047Z,100528.00
2022-08-14T01:18:02.498Z,100521.69
2022-08-14T01:18:56.671Z,100530.16
2022-08-14T01:19:43.316Z,100528.28
2022-08-14T01:20:27.302Z,100519.59
2022-08-14T01:21:04.033Z,100529.63
2022-08-14T01:21:31.986Z,100524.34
2022-08-14T01:21:56.590Z,100524.50
2022-08-14T01:22:18.666Z,100510.16
2022-08-14T01:22:40.801Z,100511.88
2022-08-14T01:23:08.305Z,100519.06
2022-08-14T01:23:41.708Z,100511.88
2022-08-14T01:24:09.897Z,100506.28
2022-08-14T01:24:34.551Z,100514.47
2022-08-14T01:24:57.900Z,100518.72
2022-08-14T01:25:20.341Z,100512.25
2022-08-14T01:25:44.202Z,100517.88
2022-08-14T01:26:11.703Z,100502.38
2022-08-14T01:26:38.665Z,100513.28
2022-08-14T01:27:02.069Z,100506.28
2022-08-14T01:27:24.670Z,100510.88
2022-08-14T01:27:56.843Z,100502.38
2022-08-14T01:28:46.408Z,100501.69
2022-08-14T01:29:06.851Z,100498.41
2022-08-14T01:30:01.292Z,100505.44
2022-08-14T01:30:26.375Z,100494.69
2022-08-14T01:30:49.886Z,100498.09
2022-08-14T01:31:15.582Z,100496.53
2022-08-14T01:31:41.619Z,100494.53
2022-08-14T01:32:04.527Z,100504.41
2022-08-14T01:32:37.716Z,100498.63
2022-08-14T01:33:06.707Z,100492.31
2022-08-14T01:33:30.370Z,100487.50
2022-08-14T01:33:59.710Z,100487.34
2022-08-14T01:35:18.200Z,100493.34
2022-08-14T01:36:03.830Z,100491.47
2022-08-14T01:36:07.461Z,100481.66
2022-08-14T01:36:47.222Z,100490.47
2022-08-14T01:37:10.763Z,100488.75
2022-08-14T01:37:32.642Z,100489.59
2022-08-14T01:37:58.453Z,100489.06
2022-08-14T01:38:20.246Z,100481.75
2022-08-14T01:38:48.875Z,100493.19
2022-08-14T01:39:13.559Z,100488.59
2022-08-14T01:39:37.865Z,100485.88
2022-08-14T01:40:01.408Z,100482.44
2022-08-14T01:40:25.400Z,100480.41
2022-08-14T01:40:55.572Z,100484.63
2022-08-14T01:41:23.088Z,100478.31
2022-08-14T01:41:56.310Z,100482.06
2022-08-14T01:42:31.523Z,100478.47
2022-08-14T01:42:54.169Z,100481.50
2022-08-14T01:43:18.891Z,100471.41
2022-08-14T01:43:56.431Z,100471.06
2022-08-14T01:44:33.314Z,100476.19
2022-08-14T01:44:57.492Z,100470.75
2022-08-14T01:45:25.544Z,100475.66
2022-08-14T01:46:05.723Z,100478.91
2022-08-14T01:46:33.437Z,100479.78
2022-08-14T01:47:01.180Z,100473.47
2022-08-14T01:47:23.682Z,100469.88
2022-08-14T01:47:45.384Z,100470.75
2022-08-14T01:48:07.408Z,100472.63
2022-08-14T01:48:37.004Z,100476.91
2022-08-14T01:48:59.844Z,100477.91
2022-08-14T01:49:22.100Z,100469.47
2022-08-14T01:49:46.570Z,100470.16
2022-08-14T01:50:26.557Z,100462.56
2022-08-14T01:50:48.387Z,100470.06
2022-08-14T01:51:18.802Z,100479.78
2022-08-14T01:51:44.394Z,100460.31
2022-08-14T01:52:13.381Z,100476.78
2022-08-14T01:52:58.429Z,100478.66
2022-08-14T01:53:21.988Z,100465.28
2022-08-14T01:53:54.719Z,100469.63
2022-08-14T01:54:23.536Z,100466.91
2022-08-14T01:54:59.615Z,100472.63
2022-08-14T01:55:23.168Z,100468.34
2022-08-14T01:55:45.555Z,100468.88
2022-08-14T01:56:12.163Z,100466.34
2022-08-14T01:56:44.466Z,100464.28
2022-08-14T01:57:11.578Z,100462.44
2022-08-14T01:58:00.219Z,100461.72
2022-08-14T01:58:20.193Z,100463.75
2022-08-14T01:58:57.493Z,100456.06
2022-08-14T01:59:21.833Z,100463.22
2022-08-14T01:59:44.629Z,100466.78
2022-08-14T02:00:09.257Z,100458.59
2022-08-14T02:00:36.329Z,100460.31
2022-08-14T02:00:58.508Z,100460.66
2022-08-14T02:01:20.751Z,100460.31
2022-08-14T02:01:58.096Z,100460.50
2022-08-14T02:02:20.723Z,100454.19
2022-08-14T02:02:43.040Z,100457.94
2022-08-14T02:03:08.343Z,100459.66
2022-08-14T02:03:35.611Z,100455.06
2022-08-14T02:04:03.636Z,100459.66
2022-08-14T02:04:54.518Z,100454.19
2022-08-14T02:05:13.316Z,100453.88
2022-08-14T02:05:38.724Z,100458.59
2022-08-14T02:06:32.696Z,100458.94
2022-08-14T02:06:44.550Z,100458.94
2022-08-14T02:07:15.693Z,100458.94
2022-08-14T02:07:53.265Z,100454.50
2022-08-14T02:08:22.506Z,100455.22
2022-08-14T02:08:58.054Z,100454.34
2022-08-14T02:09:22.612Z,100446.66
2022-08-14T02:09:44.457Z,100451.97
2022-08-14T02:10:17.970Z,100456.38
2022-08-14T02:10:47.257Z,100451.09
2022-08-14T02:11:18.667Z,100452.09
2022-08-14T02:11:40.430Z,100451.97
2022-08-14T02:12:05.682Z,100450.38
2022-08-14T02:12:30.956Z,100458.41
2022-08-14T02:12:56.904Z,100456.84
2022-08-14T02:13:20.824Z,100469.47
2022-08-14T02:13:46.471Z,100465.88
2022-08-14T02:14:14.645Z,100466.06
2022-08-14T02:15:00.660Z,100472.81
2022-08-14T02:15:23.694Z,100464.25
2022-08-14T02:15:48.422Z,100465.28
2022-08-14T02:16:21.719Z,100466.13
2022-08-14T02:16:48.077Z,100473.13
2022-08-14T02:17:13.634Z,100468.69
2022-08-14T02:17:37.019Z,100453.69
2022-08-14T02:18:01.503Z,100465.97
2022-08-14T02:18:24.289Z,100468.03
2022-08-14T02:18:49.108Z,100461.81
2022-08-14T02:19:15.076Z,100473.91
2022-08-14T02:19:36.952Z,100462.28
2022-08-14T02:19:58.819Z,100461.09
2022-08-14T02:20:23.786Z,100463.50
2022-08-14T02:20:47.753Z,100456.66
2022-08-14T02:21:12.425Z,100466.22
2022-08-14T02:21:43.245Z,100459.94
2022-08-14T02:22:10.352Z,100469.97
2022-08-14T02:22:33.153Z,100473.38
2022-08-14T02:22:57.265Z,100462.97
2022-08-14T02:23:30.492Z,100449.75
2022-08-14T02:23:55.400Z,100479.31
2022-08-14T02:24:39.697Z,100465.78
2022-08-14T02:25:03.333Z,100449.63
2022-08-14T02:25:29.901Z,100464.75
2022-08-14T02:25:54.612Z,100469.34
2022-08-14T02:26:29.021Z,100462.19
2022-08-14T02:28:20.227Z,100469.03
2022-08-14T02:28:25.075Z,100459.31
2022-08-14T02:28:56.106Z,100469.88
2022-08-14T02:29:05.115Z,100461.91
2022-08-14T02:30:00.502Z,100468.03
2022-08-14T02:30:15.120Z,100469.22
2022-08-14T02:30:39.204Z,100460.31
2022-08-14T02:31:02.139Z,100473.63
2022-08-14T02:31:28.596Z,100464.75
2022-08-14T02:32:04.930Z,100469.22
2022-08-14T02:32:30.254Z,100470.75
2022-08-14T02:32:58.941Z,100468.16
2022-08-14T02:33:22.401Z,100466.25
2022-08-14T02:33:44.717Z,100465.38
2022-08-14T02:34:20.012Z,100467.09
2022-08-14T02:34:45.444Z,100468.63
2022-08-14T02:35:18.584Z,100468.50
2022-08-14T02:35:41.497Z,100470.81
2022-08-14T02:37:02.552Z,100468.50
2022-08-14T02:37:04.221Z,100454.06
2022-08-14T02:37:37.411Z,100470.50
2022-08-14T02:38:11.674Z,100462.78
2022-08-14T02:38:49.824Z,100463.50
2022-08-14T02:39:13.782Z,100455.78
2022-08-14T02:39:38.523Z,100469.81
2022-08-14T02:40:00.590Z,100465.06
2022-08-14T02:40:32.124Z,100464.38
2022-08-14T02:40:56.666Z,100469.69
2022-08-14T02:41:18.397Z,100454.94
2022-08-14T02:41:52.437Z,100459.59
2022-08-14T02:42:23.456Z,100468.50
2022-08-14T02:42:59.303Z,100465.91
2022-08-14T02:43:22.620Z,100467.22
2022-08-14T02:43:48.161Z,100470.81
2022-08-14T02:44:12.816Z,100470.13
2022-08-14T02:44:39.770Z,100471.69
2022-08-14T02:45:01.561Z,100469.25
2022-08-14T02:45:24.042Z,100465.66
2022-08-14T02:45:47.703Z,100469.25
2022-08-14T02:46:11.339Z,100471.78
2022-08-14T02:46:34.272Z,100456.25
2022-08-14T02:47:02.920Z,100476.56
2022-08-14T02:47:30.080Z,100471.13
2022-08-14T02:47:53.739Z,100471.41
2022-08-14T02:49:04.869Z,100472.44
2022-08-14T02:49:06.213Z,100466.63
2022-08-14T02:49:34.051Z,100473.06
2022-08-14T02:49:57.045Z,100469.47
2022-08-14T02:50:19.963Z,100472.06
2022-08-14T02:50:51.521Z,100475.59
2022-08-14T02:51:15.581Z,100468.63
2022-08-14T02:51:38.711Z,100474.91
2022-08-14T02:52:01.360Z,100474.06
2022-08-14T02:52:57.460Z,100468.28
2022-08-14T02:53:12.004Z,100472.06
2022-08-14T02:53:39.790Z,100473.75
2022-08-14T02:54:07.095Z,100474.44
2022-08-14T02:54:28.801Z,100473.34
2022-08-14T02:54:52.172Z,100476.94
2022-08-14T02:55:15.602Z,100473.19
2022-08-14T02:55:44.707Z,100473.34
2022-08-14T02:56:29.701Z,100471.66
2022-08-14T02:57:16.417Z,100481.50
2022-08-14T02:57:39.806Z,100474.22
2022-08-14T02:58:05.988Z,100474.22
2022-08-14T02:58:30.312Z,100473.66
2022-08-14T02:58:56.275Z,100467.91
2022-08-14T02:59:24.738Z,100472.66
2022-08-14T02:59:51.875Z,100477.78
2022-08-14T03:00:18.903Z,100468.94
2022-08-14T03:00:40.724Z,100473.34
2022-08-14T03:01:02.443Z,100477.78
2022-08-14T03:01:26.191Z,100478.97
2022-08-14T03:01:54.818Z,100474.22
2022-08-14T03:02:49.148Z,100470.63
2022-08-14T03:02:59.439Z,100477.41
2022-08-14T03:03:23.852Z,100475.00
2022-08-14T03:03:49.680Z,100474.69
2022-08-14T03:04:12.185Z,100453.84
2022-08-14T03:04:34.569Z,100477.56
2022-08-14T03:04:56.321Z,100463.97
2022-08-14T03:05:20.414Z,100468.69
2022-08-14T03:05:42.093Z,100466.50
2022-08-14T03:06:04.976Z,100470.09
2022-08-14T03:06:48.943Z,100467.38
2022-08-14T03:07:10.420Z,100458.66
2022-08-14T03:07:40.695Z,100465.50
2022-08-14T03:08:09.081Z,100457.94
2022-08-14T03:08:34.564Z,100464.09
2022-08-14T03:08:56.393Z,100460.69
2022-08-14T03:09:19.697Z,100469.00
2022-08-14T03:10:25.348Z,100460.13
2022-08-14T03:10:25.673Z,100463.72
2022-08-14T03:10:50.314Z,100465.03
2022-08-14T03:11:13.565Z,100467.44
2022-08-14T03:11:36.128Z,100461.00
2022-08-14T03:11:58.725Z,100462.84
2022-08-14T03:12:32.402Z,100466.44
2022-08-14T03:12:54.344Z,100462.00
2022-08-14T03:13:21.135Z,100463.00
2022-08-14T03:13:47.888Z,100465.03
2022-08-14T03:14:11.888Z,100455.16
2022-08-14T03:14:38.657Z,100458.88
2022-08-14T03:15:03.561Z,100461.06
2022-08-14T03:15:27.839Z,100457.34
2022-08-14T03:15:55.639Z,100454.91
2022-08-14T03:16:26.998Z,100456.63
2022-08-14T03:16:50.985Z,100449.78
2022-08-14T03:17:14.862Z,100451.66
2022-08-14T03:17:41.165Z,100442.47
2022-08-14T03:18:22.074Z,100446.53
2022-08-14T03:19:00.242Z,100446.22
2022-08-14T03:19:22.765Z,100444.03
2022-08-14T03:19:44.654Z,100447.59
2022-08-14T03:20:07.333Z,100449.31
2022-08-14T03:20:33.969Z,100446.59
2022-08-14T03:20:57.690Z,100445.59
2022-08-14T03:21:20.613Z,100448.06
2022-08-14T03:21:43.704Z,100447.59
2022-08-14T03:22:05.480Z,100449.47
2022-08-14T03:22:33.725Z,100449.31
2022-08-14T03:22:59.341Z,100446.47
2022-08-14T03:23:22.086Z,100441.84
2022-08-14T03:23:48.166Z,100446.13
2022-08-14T03:24:21.505Z,100456.03
2022-08-14T03:24:45.535Z,100449.88
2022-08-14T03:25:08.165Z,100449.19
2022-08-14T03:25:33.582Z,100458.16
2022-08-14T03:25:56.283Z,100450.00
2022-08-14T03:26:29.218Z,100451.03
2022-08-14T03:26:57.614Z,100452.72
2022-08-14T03:27:19.528Z,100449.31
2022-08-14T03:27:47.992Z,100447.59
2022-08-14T03:28:32.907Z,100452.38
2022-08-14T03:28:56.537Z,100444.19
2022-08-14T03:29:24.650Z,100451.31
2022-08-14T03:29:48.417Z,100447.94
2022-08-14T03:30:14.505Z,100442.31
2022-08-14T03:30:40.021Z,100448.94
2022-08-14T03:31:02.815Z,100442.78
2022-08-14T03:31:26.071Z,100440.75
2022-08-14T03:31:53.292Z,100445.97
2022-08-14T03:32:14.959Z,100438.53
2022-08-14T03:32:38.788Z,100445.72
2022-08-14T03:33:03.535Z,100441.97
2022-08-14T03:33:27.562Z,100447.13
2022-08-14T03:33:51.739Z,100443.69
2022-08-14T03:34:24.998Z,100439.97
2022-08-14T03:34:58.683Z,100441.97
2022-08-14T03:35:21.138Z,100447.41
2022-08-14T03:35:59.742Z,100445.72
2022-08-14T03:37:37.678Z,100443.19
2022-08-14T03:37:51.458Z,100449.41
2022-08-14T03:39:10.667Z,100453.75
2022-08-14T03:39:13.671Z,100445.19
2022-08-14T03:39:27.610Z,100450.94
2022-08-14T03:39:49.568Z,100444.50
2022-08-14T03:40:18.280Z,100445.50
2022-08-14T03:40:41.341Z,100450.94
2022-08-14T03:41:03.037Z,100443.47
2022-08-14T03:41:28.169Z,100447.22
2022-08-14T03:42:01.521Z,100442.78
2022-08-14T03:42:25.097Z,100447.50
2022-08-14T03:42:58.936Z,100445.41
2022-08-14T03:43:21.762Z,100441.84
2022-08-14T03:43:43.882Z,100447.09
2022-08-14T03:45:20.262Z,100444.59
2022-08-14T03:45:26.102Z,100440.41
2022-08-14T03:45:34.801Z,100443.16
2022-08-14T03:45:56.946Z,100443.34
2022-08-14T03:46:51.906Z,100441.63
2022-08-14T03:47:04.009Z,100446.34
2022-08-14T03:47:46.050Z,100430.47
2022-08-14T03:48:26.779Z,100437.31
2022-08-14T03:48:54.436Z,100438.50
2022-08-14T03:49:24.407Z,100439.50
2022-08-14T03:49:51.974Z,100440.50
2022-08-14T03:50:14.105Z,100448.50
2022-08-14T03:50:47.462Z,100436.50
2022-08-14T03:51:13.272Z,100432.09
2022-08-14T03:51:38.143Z,100440.66
2022-08-14T03:52:04.663Z,100446.66
2022-08-14T03:52:55.472Z,100442.06
2022-08-14T03:53:20.505Z,100443.63
2022-08-14T03:53:46.346Z,100439.75
2022-08-14T03:54:09.299Z,100439.91
2022-08-14T03:54:37.783Z,100430.22
2022-08-14T03:55:03.735Z,100433.06
2022-08-14T03:55:25.524Z,100441.47
2022-08-14T03:55:48.398Z,100440.44
2022-08-14T03:56:18.030Z,100436.59
2022-08-14T03:56:45.107Z,100436.59
2022-08-14T03:57:11.971Z,100439.84
2022-08-14T03:57:37.247Z,100436.44
2022-08-14T03:58:00.460Z,100440.16
2022-08-14T03:58:35.104Z,100440.84
2022-08-14T03:59:03.009Z,100442.28
2022-08-14T03:59:28.503Z,100438.72
2022-08-14T03:59:50.489Z,100437.53
2022-08-14T04:00:43.530Z,100431.25
2022-08-14T04:00:56.488Z,100436.84
2022-08-14T04:01:21.312Z,100439.56
2022-08-14T04:01:45.819Z,100434.13
2022-08-14T04:02:32.492Z,100440.25
2022-08-14T04:02:56.121Z,100430.97
2022-08-14T04:03:24.345Z,100429.38
2022-08-14T04:03:46.992Z,100428.38
2022-08-14T04:04:09.913Z,100429.94
2022-08-14T04:04:33.624Z,100430.09
2022-08-14T04:04:55.548Z,100435.22
2022-08-14T04:05:38.017Z,100428.94
2022-08-14T04:06:08.454Z,100433.38
2022-08-14T04:06:32.689Z,100432.38
2022-08-14T04:07:04.479Z,100425.75
2022-08-14T04:07:28.235Z,100428.78
2022-08-14T04:08:00.106Z,100427.47
2022-08-14T04:08:34.892Z,100432.38
2022-08-14T04:08:58.093Z,100429.47
2022-08-14T04:09:19.849Z,100433.91
2022-08-14T04:09:41.724Z,100432.19
2022-08-14T04:10:04.067Z,100427.78
2022-08-14T04:10:32.647Z,100430.50
2022-08-14T04:10:56.311Z,100433.22
2022-08-14T04:11:19.423Z,100427.59
2022-08-14T04:11:42.059Z,100428.66
2022-08-14T04:12:06.131Z,100431.66
2022-08-14T04:12:29.300Z,100436.41
2022-08-14T04:12:51.671Z,100434.38
2022-08-14T04:13:18.035Z,100435.22
2022-08-14T04:13:42.687Z,100430.78
2022-08-14T04:14:05.405Z,100423.94
2022-08-14T04:14:29.359Z,100430.97
2022-08-14T04:14:52.382Z,100433.97
2022-08-14T04:15:19.937Z,100439.25
2022-08-14T04:15:56.633Z,100433.81
2022-08-14T04:16:25.172Z,100431.09
2022-08-14T04:16:53.299Z,100430.09
2022-08-14T04:17:14.921Z,100424.09
2022-08-14T04:17:38.548Z,100431.81
2022-08-14T04:18:06.399Z,100434.38
2022-08-14T04:18:30.470Z,100434.22
2022-08-14T04:18:55.914Z,100432.50
2022-08-14T04:19:23.969Z,100433.38
2022-08-14T04:19:47.335Z,100434.91
2022-08-14T04:20:10.205Z,100432.38
2022-08-14T04:20:31.981Z,100435.94
2022-08-14T04:20:55.895Z,100435.22
2022-08-14T04:21:18.373Z,100435.09
2022-08-14T04:22:01.835Z,100434.91
2022-08-14T04:22:23.629Z,100437.34
2022-08-14T04:22:45.923Z,100434.63
2022-08-14T04:23:10.509Z,100434.75
2022-08-14T04:23:42.624Z,100439.66
2022-08-14T04:24:06.905Z,100434.22
2022-08-14T04:24:29.093Z,100432.50
2022-08-14T04:24:53.077Z,100429.47
2022-08-14T04:25:14.753Z,100438.47
2022-08-14T04:25:37.351Z,100437.63
2022-08-14T04:26:00.262Z,100438.34
2022-08-14T04:26:27.171Z,100443.06
2022-08-14T04:27:00.393Z,100432.50
2022-08-14T04:27:23.606Z,100433.69
2022-08-14T04:27:48.674Z,100430.97
2022-08-14T04:29:06.865Z,100435.53
2022-08-14T04:29:15.243Z,100435.13
2022-08-14T04:29:38.617Z,100430.75
2022-08-14T04:30:00.467Z,100434.31
2022-08-14T04:30:32.692Z,100436.19
2022-08-14T04:30:59.574Z,100434.59
2022-08-14T04:31:24.881Z,100431.19
2022-08-14T04:32:58.999Z,100432.91
2022-08-14T04:33:10.842Z,100432.91
2022-08-14T04:33:33.169Z,100427.75
2022-08-14T04:33:55.484Z,100427.75
2022-08-14T04:34:20.742Z,100420.34
2022-08-14T04:34:52.232Z,100426.75
2022-08-14T04:35:14.287Z,100421.63
2022-08-14T04:35:56.237Z,100425.91
2022-08-14T04:36:18.683Z,100416.81
2022-08-14T04:36:55.211Z,100424.09
2022-08-14T04:37:39.312Z,100411.25
2022-08-14T04:38:36.705Z,100425.66
2022-08-14T04:39:20.286Z,100422.94
2022-08-14T04:40:00.208Z,100425.50
2022-08-14T04:40:43.534Z,100425.22
2022-08-14T04:41:23.952Z,100418.94
2022-08-14T04:42:13.965Z,100426.94
2022-08-14T04:42:54.873Z,100418.81
2022-08-14T04:43:39.229Z,100419.53
2022-08-14T04:44:02.437Z,100421.06
2022-08-14T04:44:26.867Z,100424.66
2022-08-14T04:45:00.974Z,100425.50
2022-08-14T04:45:24.564Z,100420.06
2022-08-14T04:45:51.490Z,100431.66
2022-08-14T04:46:57.476Z,100421.78
2022-08-14T04:47:16.654Z,100418.81
2022-08-14T04:47:56.794Z,100421.38
2022-08-14T04:48:39.793Z,100423.63
2022-08-14T04:49:03.593Z,100419.38
2022-08-14T04:49:29.797Z,100425.63
2022-08-14T04:49:56.886Z,100424.63
2022-08-14T04:50:23.174Z,100418.22
2022-08-14T04:51:03.405Z,100414.78
2022-08-14T04:51:26.596Z,100413.38
2022-08-14T04:51:55.763Z,100422.78
2022-08-14T04:52:23.394Z,100417.34
2022-08-14T04:52:49.325Z,100416.81
2022-08-14T04:53:23.218Z,100419.53
2022-08-14T04:53:49.470Z,100416.47
2022-08-14T04:54:13.450Z,100415.50
2022-08-14T04:54:38.938Z,100414.50
2022-08-14T04:55:01.264Z,100413.50
2022-08-14T04:55:24.089Z,100413.31
2022-08-14T04:55:51.595Z,100410.59
2022-08-14T04:56:30.695Z,100408.91
2022-08-14T04:56:56.160Z,100415.34
2022-08-14T04:57:17.983Z,100406.47
2022-08-14T04:57:40.967Z,100401.59
2022-08-14T04:58:04.109Z,100400.03
2022-08-14T04:58:33.818Z,100405.88
2022-08-14T04:59:10.244Z,100400.75
2022-08-14T04:59:32.613Z,100404.72
2022-08-14T04:59:55.277Z,100415.31
2022-08-14T05:00:18.264Z,100410.88
2022-08-14T05:00:40.070Z,100408.69
2022-08-14T05:01:12.981Z,100406.84
2022-08-14T05:01:45.278Z,100408.09
2022-08-14T05:02:11.606Z,100411.13
2022-08-14T05:02:34.612Z,100409.25
2022-08-14T05:02:57.026Z,100410.94
2022-08-14T05:03:20.872Z,100409.25
2022-08-14T05:03:45.405Z,100402.97
2022-08-14T05:04:08.192Z,100409.09
2022-08-14T05:04:30.316Z,100415.38
2022-08-14T05:04:58.535Z,100418.97
2022-08-14T05:05:21.911Z,100418.09
2022-08-14T05:05:45.156Z,100414.53
2022-08-14T05:06:35.040Z,100408.94
2022-08-14T05:06:55.563Z,100413.38
2022-08-14T05:07:17.318Z,100418.66
2022-08-14T05:07:54.055Z,100417.50
2022-08-14T05:08:31.691Z,100409.50
2022-08-14T05:09:05.754Z,100418.66
2022-08-14T05:09:30.696Z,100418.50
2022-08-14T05:09:53.383Z,100414.06
2022-08-14T05:10:16.508Z,100414.06
2022-08-14T05:10:46.136Z,100418.38
2022-08-14T05:11:13.561Z,100422.94
2022-08-14T05:11:36.596Z,100415.78
2022-08-14T05:12:08.575Z,100415.38
2022-08-14T05:13:10.758Z,100418.66
2022-08-14T05:13:31.855Z,100413.66
2022-08-14T05:14:17.063Z,100415.00
2022-08-14T05:14:55.208Z,100415.69
2022-08-14T05:15:17.444Z,100415.53
2022-08-14T05:15:42.573Z,100414.69
2022-08-14T05:16:07.558Z,100412.97
2022-08-14T05:16:31.712Z,100411.97
2022-08-14T05:16:53.574Z,100412.97
2022-08-14T05:17:15.938Z,100408.53
2022-08-14T05:17:44.303Z,100415.69
2022-08-14T05:19:16.981Z,100413.84
2022-08-14T05:19:17.714Z,100415.38
2022-08-14T05:21:04.834Z,100408.94
2022-08-14T05:21:54.426Z,100418.09
2022-08-14T05:22:00.029Z,100408.41
2022-08-14T05:22:01.178Z,100408.94
2022-08-14T05:22:38.395Z,100403.81
2022-08-14T05:23:02.082Z,100408.09
2022-08-14T05:23:26.854Z,100414.25
2022-08-14T05:23:50.128Z,100407.94
2022-08-14T05:24:17.827Z,100414.06
2022-08-14T05:24:42.103Z,100411.22
2022-08-14T05:25:06.297Z,100417.38